Portada
METAR-TAF:

METAR-TAF

Aeropuertos :

Tabarka, Túnez

latitud: 36-57N, longitud: 008-45E, altitud: 20 m

Observación

El informe se hizo hace 44 minutos, a las 12:00 UTC
Viento 12 kt del noroeste
Temperatura 16°C
Humedad 55%
Presión 1019 hPa
Visibilidad 10 km o más
Cielo nuboso a una altura de 2000 ft

METAR: DTKA 041200Z 31012KT 9999 BKN020 16/07 Q1019 NOSIG

Hora: 13:44 (12:44 UTC)

Pronóstico

El informe se hizo hace 44 minutos, a las 12:00 UTC
Pronóstico válido del 04 a las 13 UTC al 04 a las 22 UTC
Viento 12 kt del oeste-noroeste
Visibilidad 10 km o más
Nubes dispersas a una altura de 2000 ft

TAF: DTKA 041200Z 0413/0422 29012KT 9999 SCT020

Observaciones y pronósticos meteorológicos de más de 4000 aeropuertos (mensajes METAR y TAF).

Los puntos amarillos y rojos representan las estaciones disponibles.

Ponga el ratón en el punto deseado para ver el nombre de la estación.

Haga clic para ver las observaciones y los pronósticos meteorológicos.

Para cambiar el mapa : haga clic en los botones verdes con una cruz de color negro para hacer un zoom, en el botón verde con un guión para alejar o en las flechas verdes para mapas adyacentes.


METAR-TAF: